Time;durP1;ratioP1;P1;durP2;ratioP2;P2;SDS_P1;SDS_P2;PMS_P1;PMS_P2;Temp;Humidity;BMP_temperature;BMP_pressure;BME280_temperature;BME280_humidity;BME280_pressure;Samples;Min_cycle;Max_cycle;Signal;HPM_P1;HPM_P2
2022/06/26 00:00:46;;;;;;;17.07;12.57;;;18.70;99.90;;;;;;5115875;28;20071;-70
2022/06/26 00:03:12;;;;;;;15.40;12.33;;;18.70;99.90;;;;;;5097741;28;20055;-70
2022/06/26 00:05:38;;;;;;;16.73;13.10;;;18.70;99.90;;;;;;5115425;28;20058;-70
2022/06/26 00:08:04;;;;;;;15.07;12.90;;;18.70;99.90;;;;;;5115548;28;20088;-71
2022/06/26 00:10:30;;;;;;;17.40;14.23;;;18.60;99.90;;;;;;5097214;28;20594;-72
2022/06/26 00:12:56;;;;;;;16.70;14.67;;;18.70;99.90;;;;;;5115509;28;20130;-72
2022/06/26 00:15:22;;;;;;;19.50;15.57;;;18.70;99.90;;;;;;5115505;28;20044;-72
2022/06/26 00:17:47;;;;;;;20.87;14.60;;;18.70;99.90;;;;;;5115358;28;20449;-71
2022/06/26 00:20:13;;;;;;;15.43;13.97;;;18.70;99.90;;;;;;5115295;28;20035;-71
2022/06/26 00:22:39;;;;;;;19.20;15.80;;;18.70;99.90;;;;;;5115117;28;20100;-72
2022/06/26 00:25:05;;;;;;;16.00;14.17;;;18.70;99.90;;;;;;5115041;28;20048;-71
2022/06/26 00:27:31;;;;;;;14.60;12.63;;;18.70;99.90;;;;;;5114634;28;20452;-72
2022/06/26 00:29:57;;;;;;;21.00;9.60;;;18.60;99.90;;;;;;5114655;28;20051;-71
2022/06/26 00:32:23;;;;;;;18.10;10.03;;;18.50;99.90;;;;;;5115133;28;20047;-71
2022/06/26 00:34:48;;;;;;;15.20;10.37;;;18.40;99.90;;;;;;5114933;28;20084;-71
2022/06/26 00:37:14;;;;;;;19.53;13.70;;;18.30;99.90;;;;;;5114988;28;20093;-71
2022/06/26 00:39:40;;;;;;;15.57;12.63;;;18.30;99.90;;;;;;5114824;28;20116;-72
2022/06/26 00:42:09;;;;;;;17.70;13.23;;;18.30;99.90;;;;;;5080087;28;20044;-71
2022/06/26 00:44:34;;;;;;;16.87;11.83;;;18.30;99.90;;;;;;5114371;28;20395;-72
2022/06/26 00:47:00;;;;;;;19.47;12.83;;;18.40;99.90;;;;;;5096564;28;20043;-72
2022/06/26 00:49:26;;;;;;;17.50;11.97;;;18.40;99.90;;;;;;5114471;28;20089;-72
2022/06/26 00:51:53;;;;;;;13.23;11.17;;;18.40;99.90;;;;;;5114643;28;20039;-72
2022/06/26 00:54:24;;;;;;;13.30;9.03;;;18.40;99.90;;;;;;5114333;28;20495;-71
2022/06/26 00:56:49;;;;;;;10.77;7.73;;;18.40;99.90;;;;;;5096459;28;20085;-72
2022/06/26 00:59:16;;;;;;;11.53;7.03;;;18.50;99.90;;;;;;5114851;28;20051;-71
2022/06/26 01:01:41;;;;;;;12.43;6.57;;;18.50;99.90;;;;;;5114354;28;20403;-71
2022/06/26 01:04:08;;;;;;;9.87;6.20;;;18.50;99.90;;;;;;5114413;28;20051;-72
2022/06/26 01:06:35;;;;;;;9.87;5.60;;;18.50;99.90;;;;;;5096257;28;20039;-72
2022/06/26 01:09:01;;;;;;;8.60;4.60;;;18.50;99.90;;;;;;5114363;28;20475;-72
2022/06/26 01:11:28;;;;;;;9.67;4.43;;;18.50;99.90;;;;;;5114392;28;20050;-71
2022/06/26 01:13:57;;;;;;;9.40;3.97;;;18.50;99.90;;;;;;5114258;28;20426;-72
2022/06/26 01:16:24;;;;;;;5.83;3.33;;;18.50;99.90;;;;;;5114228;28;20047;-72
2022/06/26 01:18:53;;;;;;;7.63;4.50;;;18.50;99.90;;;;;;5113961;28;20047;-72
2022/06/26 01:21:21;;;;;;;6.73;3.40;;;18.50;99.90;;;;;;5096243;28;20432;-71
2022/06/26 01:23:48;;;;;;;7.60;3.70;;;18.40;99.90;;;;;;5113883;28;20146;-72
2022/06/26 01:26:14;;;;;;;6.70;3.60;;;18.40;99.90;;;;;;5095954;28;20054;-71
2022/06/26 01:28:39;;;;;;;6.77;3.40;;;18.40;99.90;;;;;;5095945;28;20044;-72
2022/06/26 01:31:05;;;;;;;8.00;3.43;;;18.40;99.90;;;;;;5113897;28;20039;-71
2022/06/26 01:33:31;;;;;;;6.37;3.10;;;18.40;99.90;;;;;;5113786;28;20101;-72
2022/06/26 01:35:56;;;;;;;7.07;3.07;;;18.40;99.90;;;;;;5113922;28;20130;-72
2022/06/26 01:38:23;;;;;;;6.67;3.60;;;18.30;99.90;;;;;;5113885;28;20130;-72
2022/06/26 01:40:51;;;;;;;5.83;2.77;;;18.30;99.90;;;;;;5112826;28;20035;-72
2022/06/26 01:43:26;;;;;;;6.40;2.73;;;18.40;99.90;;;;;;5113805;28;20377;-71
2022/06/26 01:45:54;;;;;;;7.50;3.60;;;18.40;99.90;;;;;;5095537;28;20051;-72
2022/06/26 01:48:21;;;;;;;5.00;2.87;;;18.40;99.90;;;;;;5113418;28;20087;-72
2022/06/26 01:50:47;;;;;;;5.57;2.80;;;18.40;99.90;;;;;;5113479;28;20486;-72
2022/06/26 01:53:14;;;;;;;9.40;3.13;;;18.40;99.90;;;;;;5113729;28;20090;-71
2022/06/26 01:55:40;;;;;;;5.93;2.80;;;18.40;99.90;;;;;;5095401;28;20429;-72
2022/06/26 01:58:06;;;;;;;5.57;3.10;;;18.40;99.90;;;;;;5113833;28;20040;-71
2022/06/26 02:00:34;;;;;;;5.97;2.33;;;18.40;99.90;;;;;;5113635;28;20040;-71
2022/06/26 02:03:00;;;;;;;7.63;2.80;;;18.40;99.90;;;;;;5095447;28;20051;-71
2022/06/26 02:05:26;;;;;;;6.57;2.70;;;18.30;99.90;;;;;;5113605;28;20048;-71
2022/06/26 02:07:52;;;;;;;6.60;2.40;;;18.30;99.90;;;;;;5113348;28;20047;-71
2022/06/26 02:15:48;;;;;;;6.73;2.53;;;18.20;99.90;;;;;;5113349;28;20100;-71
2022/06/26 02:18:14;;;;;;;9.10;2.90;;;18.20;99.90;;;;;;5094899;28;20135;-71
2022/06/26 02:20:40;;;;;;;6.73;2.87;;;18.20;99.90;;;;;;5113210;28;20046;-70
2022/06/26 02:23:06;;;;;;;5.40;2.80;;;18.20;99.90;;;;;;5113473;28;20387;-70
2022/06/26 02:25:32;;;;;;;9.07;3.20;;;18.20;99.90;;;;;;5095373;28;20051;-70
2022/06/26 02:27:57;;;;;;;6.07;3.10;;;18.20;99.90;;;;;;5113214;28;20079;-70
2022/06/26 02:30:23;;;;;;;5.83;2.53;;;18.20;99.90;;;;;;5113363;28;20046;-70
2022/06/26 02:32:49;;;;;;;6.93;2.40;;;18.20;99.90;;;;;;5113196;28;20042;-71
2022/06/26 02:35:14;;;;;;;8.73;3.57;;;18.10;99.90;;;;;;5113317;28;20044;-70
2022/06/26 02:37:40;;;;;;;6.70;3.43;;;18.10;99.90;;;;;;5095184;28;20146;-70
2022/06/26 02:40:07;;;;;;;7.97;3.63;;;18.10;99.90;;;;;;5113270;28;20039;-71
2022/06/26 02:42:32;;;;;;;7.90;3.20;;;18.10;99.90;;;;;;5095206;28;20043;-71
2022/06/26 02:44:58;;;;;;;6.57;3.40;;;18.10;99.90;;;;;;5112984;28;20503;-71
2022/06/26 02:47:24;;;;;;;9.00;3.87;;;18.10;99.90;;;;;;5094837;28;20062;-71
2022/06/26 02:49:49;;;;;;;8.43;4.13;;;18.00;99.90;;;;;;5112979;28;20104;-71
2022/06/26 02:52:15;;;;;;;7.17;3.40;;;18.00;99.90;;;;;;5097413;28;20368;-71
2022/06/26 02:54:41;;;;;;;10.40;4.53;;;18.00;99.90;;;;;;5116877;28;20089;-71
2022/06/26 02:57:06;;;;;;;9.57;4.17;;;18.00;99.90;;;;;;5116982;28;20061;-71
2022/06/26 02:59:32;;;;;;;9.17;3.90;;;18.00;99.90;;;;;;5117168;28;20047;-71
2022/06/26 03:01:58;;;;;;;8.50;4.17;;;18.00;99.90;;;;;;5116400;28;20177;-70
2022/06/26 03:04:24;;;;;;;7.90;4.17;;;18.10;99.90;;;;;;5098863;28;20071;-70
2022/06/26 03:06:50;;;;;;;7.27;4.23;;;18.00;99.90;;;;;;5116577;28;20074;-70
2022/06/26 03:09:15;;;;;;;7.50;4.67;;;18.00;99.90;;;;;;5116659;28;20089;-70
2022/06/26 03:11:41;;;;;;;6.67;4.10;;;18.00;99.90;;;;;;5116644;28;20054;-71
2022/06/26 03:14:09;;;;;;;7.07;4.63;;;18.00;99.90;;;;;;5116833;28;20047;-70
2022/06/26 03:16:35;;;;;;;8.33;5.53;;;18.00;99.90;;;;;;5116292;28;20495;-70
2022/06/26 03:19:01;;;;;;;9.73;5.40;;;18.00;99.90;;;;;;5098310;28;20090;-70
2022/06/26 03:21:27;;;;;;;7.73;5.10;;;18.00;99.90;;;;;;5116588;28;20090;-71
2022/06/26 03:24:02;;;;;;;6.97;4.90;;;18.00;99.90;;;;;;5116259;28;20040;-70
2022/06/26 03:26:29;;;;;;;9.57;5.38;;;18.00;99.90;;;;;;5116638;28;20415;-70
2022/06/26 03:28:55;;;;;;;6.57;4.27;;;18.00;99.90;;;;;;5097923;28;20131;-71
2022/06/26 03:31:21;;;;;;;10.03;4.97;;;18.00;99.90;;;;;;5116236;28;20154;-70
2022/06/26 03:33:47;;;;;;;8.47;4.53;;;18.00;99.90;;;;;;5116134;28;20072;-71
2022/06/26 03:36:13;;;;;;;7.90;4.40;;;18.00;99.90;;;;;;5116426;28;20109;-71
2022/06/26 03:38:39;;;;;;;10.03;5.40;;;18.00;99.90;;;;;;5116204;28;20047;-70
2022/06/26 03:41:05;;;;;;;8.63;5.07;;;18.10;99.90;;;;;;5115923;28;20100;-71
2022/06/26 03:43:31;;;;;;;8.40;5.10;;;18.10;99.90;;;;;;5116083;28;20047;-70
2022/06/26 03:45:56;;;;;;;10.20;5.47;;;18.10;99.90;;;;;;5115794;28;20062;-71
2022/06/26 03:48:22;;;;;;;10.93;4.93;;;18.10;99.90;;;;;;5097603;28;20066;-71
2022/06/26 03:50:49;;;;;;;7.73;4.57;;;18.10;99.90;;;;;;5115647;28;20189;-71
2022/06/26 03:53:14;;;;;;;7.90;4.80;;;18.10;99.90;;;;;;5080743;28;20039;-71
2022/06/26 03:55:40;;;;;;;9.63;4.73;;;18.10;99.90;;;;;;5115879;28;20055;-70
2022/06/26 03:58:06;;;;;;;8.33;4.77;;;18.10;99.90;;;;;;5115555;28;20043;-71
2022/06/26 04:00:31;;;;;;;7.60;4.80;;;18.10;99.90;;;;;;5115891;28;20364;-70
2022/06/26 04:02:57;;;;;;;7.40;4.77;;;18.10;99.90;;;;;;5114254;28;20044;-70
2022/06/26 04:05:23;;;;;;;6.43;4.93;;;18.10;99.90;;;;;;5115975;28;20044;-70
2022/06/26 04:07:48;;;;;;;8.13;4.80;;;18.10;99.90;;;;;;5115343;28;20457;-71
2022/06/26 04:10:14;;;;;;;8.63;5.00;;;18.20;99.90;;;;;;5115482;28;20050;-70
2022/06/26 04:12:40;;;;;;;8.87;5.20;;;18.20;99.90;;;;;;5097568;28;20043;-70
2022/06/26 04:15:06;;;;;;;8.33;5.00;;;18.20;99.90;;;;;;5115286;28;20517;-71
2022/06/26 04:17:32;;;;;;;7.57;5.23;;;18.20;99.90;;;;;;5115485;28;20044;-70
2022/06/26 04:19:58;;;;;;;8.63;4.87;;;18.30;99.90;;;;;;5115145;28;20096;-71
2022/06/26 04:22:23;;;;;;;7.40;5.03;;;18.30;99.90;;;;;;5114985;28;20391;-71
2022/06/26 04:24:49;;;;;;;7.83;5.40;;;18.30;99.90;;;;;;5097079;28;20043;-71
2022/06/26 04:27:15;;;;;;;6.97;5.17;;;18.30;99.90;;;;;;5097228;28;20467;-71
2022/06/26 04:29:41;;;;;;;7.93;4.33;;;18.30;99.90;;;;;;5115461;28;20102;-70
2022/06/26 04:32:07;;;;;;;7.00;4.83;;;18.30;99.90;;;;;;5096688;28;20043;-71
2022/06/26 04:34:33;;;;;;;9.10;5.40;;;18.30;99.90;;;;;;5115049;28;20058;-70
2022/06/26 04:36:58;;;;;;;11.03;5.20;;;18.30;99.90;;;;;;5114855;28;20047;-71
2022/06/26 04:39:24;;;;;;;6.60;4.67;;;18.20;99.90;;;;;;5115082;28;20092;-70
2022/06/26 04:41:50;;;;;;;6.63;4.67;;;18.20;99.90;;;;;;5114394;28;20043;-71
2022/06/26 04:44:17;;;;;;;7.10;4.50;;;18.20;99.90;;;;;;5096867;28;20089;-71
2022/06/26 04:46:46;;;;;;;6.47;4.40;;;18.20;99.90;;;;;;5096889;28;20083;-70
2022/06/26 04:49:13;;;;;;;6.20;4.27;;;18.20;99.90;;;;;;5114283;28;20193;-71
2022/06/26 04:51:39;;;;;;;7.57;5.00;;;18.20;99.90;;;;;;5114712;28;20168;-71
2022/06/26 04:54:06;;;;;;;7.73;5.20;;;18.30;99.90;;;;;;5114501;28;20067;-71
2022/06/26 04:56:33;;;;;;;6.27;4.90;;;18.30;99.90;;;;;;5114634;28;20044;-71
2022/06/26 04:58:59;;;;;;;8.63;5.50;;;18.40;99.90;;;;;;5114352;28;20055;-71
2022/06/26 05:01:25;;;;;;;7.20;5.87;;;18.40;99.90;;;;;;5114506;28;20043;-71
2022/06/26 05:03:51;;;;;;;7.47;6.13;;;18.50;99.90;;;;;;5114399;28;20075;-73
2022/06/26 05:06:17;;;;;;;8.17;5.90;;;18.50;99.90;;;;;;5114434;28;20522;-71
2022/06/26 05:08:43;;;;;;;8.03;7.20;;;18.50;99.90;;;;;;5096447;28;20040;-71
2022/06/26 05:11:09;;;;;;;9.13;7.00;;;18.50;99.90;;;;;;5114041;28;20039;-71
2022/06/26 05:13:35;;;;;;;8.03;6.27;;;18.70;99.90;;;;;;5114472;28;20458;-71
2022/06/26 05:16:00;;;;;;;13.37;10.83;;;18.80;99.90;;;;;;5113972;28;20123;-71
2022/06/26 05:18:27;;;;;;;10.57;9.40;;;18.90;99.90;;;;;;5114114;28;20392;-71
2022/06/26 05:20:53;;;;;;;13.33;11.63;;;;;;;;;;5113963;28;20173;-73
2022/06/26 05:23:19;;;;;;;15.13;13.30;;;;;;;;;;5114059;28;20109;-71
2022/06/26 05:25:45;;;;;;;14.10;12.53;;;;;;;;;;5114160;28;20047;-71
2022/06/26 05:28:11;;;;;;;15.67;14.03;;;;;;;;;;5095734;28;20097;-71
2022/06/26 05:30:38;;;;;;;16.20;14.50;;;;;;;;;;5114020;28;20054;-71
2022/06/26 05:33:05;;;;;;;18.00;16.00;;;;;;;;;;5113809;28;20140;-71
2022/06/26 05:35:31;;;;;;;22.00;19.90;;;;;;;;;;5113941;28;20047;-71
2022/06/26 05:37:57;;;;;;;24.20;21.87;;;;;;;;;;5113677;28;20051;-71
2022/06/26 05:40:23;;;;;;;24.87;22.47;;;;;;;;;;5113768;28;20078;-71
2022/06/26 05:42:50;;;;;;;24.63;22.17;;;;;;;;;;5095858;28;20123;-71
2022/06/26 05:45:16;;;;;;;28.17;25.57;;;;;;;;;;5095576;28;20047;-71
2022/06/26 05:47:43;;;;;;;28.57;25.63;;;;;;;;;;5113533;28;20048;-71
2022/06/26 05:50:09;;;;;;;28.27;25.43;;;;;;;;;;5113344;28;20050;-71
2022/06/26 05:52:35;;;;;;;28.17;25.70;;;;;;;;;;5113777;28;20096;-71
2022/06/26 05:55:01;;;;;;;30.73;27.63;;;;;;;;;;5113441;28;20047;-71
2022/06/26 05:57:27;;;;;;;29.50;26.70;;;;;;;;;;5113716;28;20455;-70
2022/06/26 05:59:53;;;;;;;29.73;27.00;;;;;;;;;;5095390;28;20051;-71
2022/06/26 06:02:19;;;;;;;30.07;27.27;;;19.20;99.90;;;;;;5113395;28;20048;-71
2022/06/26 06:04:44;;;;;;;30.57;27.73;;;19.20;99.90;;;;;;5113589;28;20050;-70
2022/06/26 06:07:10;;;;;;;27.80;25.30;;;19.20;99.90;;;;;;5113324;28;20051;-71
2022/06/26 06:09:36;;;;;;;28.77;26.17;;;19.20;99.90;;;;;;5113382;28;20046;-71
2022/06/26 06:12:02;;;;;;;28.33;25.53;;;19.20;99.90;;;;;;5113284;28;20127;-71
2022/06/26 06:14:27;;;;;;;27.60;24.97;;;19.20;99.90;;;;;;5113254;28;20479;-71
2022/06/26 06:16:53;;;;;;;25.50;23.00;;;19.20;99.90;;;;;;5113469;28;20050;-71
2022/06/26 06:19:19;;;;;;;25.63;23.37;;;19.20;99.90;;;;;;5113303;28;20086;-71
2022/06/26 06:21:45;;;;;;;24.43;20.27;;;19.10;99.90;;;;;;5113415;28;20542;-71
2022/06/26 06:24:11;;;;;;;21.00;18.90;;;;;;;;;;5113187;28;20050;-71
2022/06/26 06:26:37;;;;;;;21.57;18.43;;;19.30;99.90;;;;;;5114678;28;20040;-71
2022/06/26 06:29:03;;;;;;;21.60;19.40;;;19.40;99.90;;;;;;5117379;28;20376;-71
2022/06/26 06:31:29;;;;;;;21.40;19.20;;;19.40;99.90;;;;;;5117458;28;20062;-71
2022/06/26 06:33:55;;;;;;;20.07;17.97;;;19.40;99.90;;;;;;5117439;28;20044;-71
2022/06/26 06:36:21;;;;;;;19.13;17.07;;;19.40;99.90;;;;;;5117184;28;20104;-71
2022/06/26 06:38:46;;;;;;;21.33;17.80;;;19.40;99.90;;;;;;5117385;28;20040;-71
2022/06/26 06:41:12;;;;;;;21.03;18.77;;;19.50;99.90;;;;;;5116972;28;20475;-71
2022/06/26 06:43:38;;;;;;;22.27;19.87;;;19.70;99.90;;;;;;5117178;28;20055;-71
2022/06/26 06:46:03;;;;;;;19.13;17.13;;;19.70;99.90;;;;;;5098898;28;20480;-71
2022/06/26 06:48:29;;;;;;;17.73;15.93;;;20.10;99.90;;;;;;5117331;28;20054;-71
2022/06/26 06:50:56;;;;;;;19.27;17.27;;;20.50;99.90;;;;;;5098876;28;20043;-71
2022/06/26 06:53:22;;;;;;;16.93;15.07;;;21.20;99.90;;;;;;5117196;28;20547;-71
2022/06/26 06:55:48;;;;;;;15.27;13.00;;;22.50;99.90;;;;;;5117005;28;20130;-71
2022/06/26 06:58:13;;;;;;;14.73;13.00;;;23.60;99.90;;;;;;5116921;28;20064;-71
2022/06/26 07:00:40;;;;;;;14.33;12.10;;;;;;;;;;5116750;28;20040;-71
2022/06/26 07:03:06;;;;;;;12.73;10.60;;;;;;;;;;5098714;28;20388;-72
2022/06/26 07:05:33;;;;;;;11.70;10.17;;;27.10;99.90;;;;;;5098989;28;20135;-71
2022/06/26 07:08:00;;;;;;;11.43;9.30;;;27.80;99.90;;;;;;5116874;28;20459;-71
2022/06/26 07:10:26;;;;;;;11.43;9.03;;;;;;;;;;5116472;28;20126;-71
2022/06/26 07:12:56;;;;;;;12.10;8.93;;;;;;;;;;5116721;28;20043;-71
2022/06/26 07:15:23;;;;;;;12.17;9.23;;;;;;;;;;5116494;28;20051;-72
2022/06/26 07:17:49;;;;;;;14.77;8.37;;;;;;;;;;5116749;28;20087;-71
2022/06/26 07:20:15;;;;;;;13.10;7.83;;;;;;;;;;5116383;28;20048;-71
2022/06/26 07:22:41;;;;;;;9.17;6.50;;;25.10;98.90;;;;;;5116569;28;20053;-71
2022/06/26 07:25:07;;;;;;;9.03;5.70;;;24.60;99.90;;;;;;5116270;28;20134;-72
2022/06/26 07:27:33;;;;;;;9.67;6.27;;;;;;;;;;5116667;28;20043;-71
2022/06/26 07:29:59;;;;;;;8.77;5.70;;;;;;;;;;5116280;28;20054;-71
2022/06/26 07:32:27;;;;;;;8.20;6.40;;;;;;;;;;5116178;28;20391;-71
2022/06/26 07:34:53;;;;;;;9.50;6.70;;;;;;;;;;5116251;28;20055;-71
2022/06/26 07:37:19;;;;;;;8.73;6.20;;;22.60;99.90;;;;;;5115476;28;20138;-71
2022/06/26 07:39:45;;;;;;;7.00;5.70;;;22.40;99.90;;;;;;5115493;28;20122;-71
2022/06/26 07:42:11;;;;;;;10.77;6.60;;;22.30;99.90;;;;;;5115991;28;20148;-72
2022/06/26 07:44:37;;;;;;;9.97;6.67;;;22.30;99.90;;;;;;5116413;28;20051;-71
2022/06/26 07:47:03;;;;;;;10.13;6.87;;;;;;;;;;5115849;28;20044;-71
2022/06/26 07:49:29;;;;;;;9.67;6.63;;;26.00;99.90;;;;;;5115788;28;20048;-71
2022/06/26 07:51:55;;;;;;;12.30;8.20;;;26.60;99.90;;;;;;5116102;28;20498;-72
2022/06/26 07:54:21;;;;;;;10.07;7.27;;;26.70;96.20;;;;;;5115755;28;20057;-72
2022/06/26 07:56:50;;;;;;;10.30;7.13;;;;;;;;;;5115856;28;20043;-71
2022/06/26 07:59:16;;;;;;;11.30;7.60;;;;;;;;;;5115614;28;20050;-71
2022/06/26 08:01:42;;;;;;;11.37;7.50;;;;;;;;;;5115961;28;20079;-72
2022/06/26 08:04:09;;;;;;;9.47;7.67;;;;;;;;;;5115396;28;20555;-71
2022/06/26 08:06:35;;;;;;;8.23;6.73;;;26.00;99.90;;;;;;5115488;28;20047;-72
2022/06/26 08:09:01;;;;;;;6.93;4.77;;;26.70;94.70;;;;;;5097630;28;20058;-71
2022/06/26 08:11:27;;;;;;;5.57;3.60;;;27.40;88.00;;;;;;5115334;28;20045;-72
2022/06/26 08:13:53;;;;;;;5.70;3.67;;;;;;;;;;5115647;28;20100;-71
2022/06/26 08:16:20;;;;;;;8.38;4.15;;;;;;;;;;5115234;28;20043;-72
2022/06/26 08:18:46;;;;;;;6.90;3.60;;;;;;;;;;5115451;28;20046;-72
2022/06/26 08:24:05;;;;;;;7.30;4.10;;;;;;;;;;5090885;28;20051;-71
2022/06/26 08:26:31;;;;;;;8.05;4.60;;;;;;;;;;5114989;28;20178;-71
2022/06/26 08:28:57;;;;;;;6.88;3.80;;;;;;;;;;5115121;28;20055;-71
2022/06/26 08:31:22;;;;;;;6.15;3.80;;;26.00;91.30;;;;;;5114845;28;20491;-71
2022/06/26 08:33:48;;;;;;;6.28;3.72;;;26.30;86.90;;;;;;5115067;28;20053;-71
2022/06/26 08:36:14;;;;;;;7.10;3.53;;;26.60;86.90;;;;;;5114813;28;20440;-71
2022/06/26 08:38:40;;;;;;;4.85;2.90;;;;;;;;;;5115294;28;20040;-71
2022/06/26 08:41:08;;;;;;;6.13;3.67;;;;;;;;;;5114625;28;20484;-71
2022/06/26 08:43:35;;;;;;;5.40;2.58;;;;;;;;;;5114738;28;20055;-71
2022/06/26 08:46:04;;;;;;;7.45;2.90;;;29.20;59.50;;;;;;5114846;28;20055;-71
2022/06/26 08:48:35;;;;;;;4.93;2.80;;;;;;;;;;5114512;28;20044;-71
2022/06/26 08:51:01;;;;;;;4.80;2.90;;;;;;;;;;5114219;28;20549;-72
2022/06/26 08:53:28;;;;;;;7.10;2.90;;;;;;;;;;5114454;28;20043;-72
2022/06/26 08:55:54;;;;;;;6.15;2.92;;;29.00;80.00;;;;;;5114583;28;20101;-71
2022/06/26 08:58:20;;;;;;;6.55;2.85;;;28.60;55.00;;;;;;5114427;28;20083;-72
2022/06/26 09:00:46;;;;;;;5.22;2.38;;;28.20;57.20;;;;;;5096703;28;20079;-72
2022/06/26 09:03:13;;;;;;;6.03;2.67;;;28.00;56.50;;;;;;5096657;28;20051;-72
2022/06/26 09:05:40;;;;;;;5.75;2.65;;;;;;;;;;5114388;28;20051;-71
2022/06/26 09:08:06;;;;;;;4.80;2.65;;;;;;;;;;5114386;28;20048;-71
2022/06/26 09:10:37;;;;;;;5.75;2.40;;;27.50;69.10;;;;;;5114208;28;20067;-71
2022/06/26 09:13:03;;;;;;;5.07;2.08;;;27.40;56.90;;;;;;5114588;28;20051;-71
2022/06/26 09:15:29;;;;;;;5.47;2.50;;;27.30;76.80;;;;;;5114145;28;20097;-71
2022/06/26 09:18:01;;;;;;;4.50;2.08;;;27.10;57.20;;;;;;5114182;28;20044;-72
2022/06/26 09:20:30;;;;;;;6.00;2.85;;;26.90;58.20;;;;;;5095827;28;20046;-72
2022/06/26 09:22:57;;;;;;;4.63;2.50;;;26.90;59.10;;;;;;5114327;28;20376;-71
2022/06/26 09:25:43;;;;;;;6.05;2.50;;;;;;;;;;5095914;28;20050;-71
2022/06/26 09:28:17;;;;;;;5.72;2.90;;;26.70;59.10;;;;;;5114169;28;20054;-71
2022/06/26 09:30:47;;;;;;;4.55;2.40;;;26.30;60.20;;;;;;5113520;28;20494;-71
2022/06/26 09:33:13;;;;;;;5.05;2.35;;;26.30;61.60;;;;;;5113966;28;20044;-71
2022/06/26 09:35:39;;;;;;;6.38;2.50;;;26.20;91.30;;;;;;5114191;28;20497;-71
2022/06/26 09:38:04;;;;;;;7.43;2.38;;;26.20;90.00;;;;;;5114023;28;20039;-70
2022/06/26 09:40:30;;;;;;;6.53;2.70;;;;;;;;;;5114079;28;20150;-71
2022/06/26 09:42:56;;;;;;;6.70;2.57;;;26.20;92.90;;;;;;5114037;28;20051;-70
2022/06/26 09:45:22;;;;;;;5.40;2.53;;;26.10;60.90;;;;;;5113512;28;20395;-71
2022/06/26 09:47:49;;;;;;;5.37;1.93;;;25.90;61.60;;;;;;5114057;28;20094;-71
2022/06/26 09:50:15;;;;;;;5.30;2.30;;;25.80;61.70;;;;;;5113655;28;20047;-71
2022/06/26 09:52:42;;;;;;;7.20;2.43;;;25.80;60.90;;;;;;5113546;28;20167;-71
2022/06/26 09:55:09;;;;;;;8.10;3.23;;;25.70;61.30;;;;;;5113789;28;20062;-71
2022/06/26 09:57:36;;;;;;;6.83;2.87;;;25.70;61.80;;;;;;5113463;28;20197;-71
2022/06/26 10:00:04;;;;;;;6.53;2.90;;;25.50;63.40;;;;;;5113512;28;20096;-71
2022/06/26 10:08:06;;;;;;;7.67;2.60;;;25.60;65.20;;;;;;5113491;28;20048;-71
2022/06/26 10:10:34;;;;;;;4.87;2.23;;;25.60;64.00;;;;;;5113220;28;20047;-71
2022/06/26 10:13:05;;;;;;;6.80;2.77;;;25.50;64.70;;;;;;5113159;28;20403;-71
2022/06/26 10:15:49;;;;;;;5.00;2.23;;;25.50;65.00;;;;;;5095034;28;20102;-71
2022/06/26 10:18:32;;;;;;;6.07;2.20;;;;;;;;;;5113527;28;20047;-71
2022/06/26 10:21:06;;;;;;;5.77;2.47;;;;;;;;;;5113651;28;20047;-71
2022/06/26 10:23:33;;;;;;;6.05;2.47;;;;;;;;;;5095370;28;20138;-71
2022/06/26 10:26:10;;;;;;;5.73;2.33;;;;;;;;;;5113583;28;20044;-71
2022/06/26 10:28:36;;;;;;;7.17;2.20;;;;;;;;;;5095253;28;20044;-71
2022/06/26 10:31:08;;;;;;;6.67;2.47;;;;;;;;;;5113182;28;20039;-71
2022/06/26 10:33:34;;;;;;;7.57;2.70;;;;;;;;;;5113138;28;20124;-71
2022/06/26 10:36:01;;;;;;;6.13;2.60;;;;;;;;;;5095509;28;20067;-71
2022/06/26 10:38:28;;;;;;;5.70;2.23;;;;;;;;;;5113064;28;20047;-72
2022/06/26 10:44:15;;;;;;;6.73;2.87;;;;;;;;;;5113240;28;20531;-71
2022/06/26 10:46:47;;;;;;;5.93;3.07;;;;;;;;;;5113074;28;20055;-71
2022/06/26 10:49:13;;;;;;;6.60;3.37;;;;;;;;;;5094427;28;20055;-71
2022/06/26 10:51:41;;;;;;;5.83;3.20;;;;;;;;;;5112809;28;20047;-71
2022/06/26 10:54:22;;;;;;;6.97;3.23;;;;;;;;;;5095387;28;20043;-71
2022/06/26 10:56:55;;;;;;;7.03;3.50;;;;;;;;;;5112407;28;20051;-71
2022/06/26 10:59:22;;;;;;;6.97;3.20;;;;;;;;;;5113311;28;20055;-71
2022/06/26 11:01:49;;;;;;;7.63;3.87;;;;;;;;;;5112915;28;20052;-71
2022/06/26 11:04:15;;;;;;;8.80;3.27;;;;;;;;;;5095188;28;20108;-71
2022/06/26 11:06:41;;;;;;;7.50;3.20;;;;;;;;;;5112824;28;20051;-71
2022/06/26 11:09:08;;;;;;;7.87;3.50;;;;;;;;;;5094534;28;20459;-71
2022/06/26 11:11:35;;;;;;;6.87;3.63;;;;;;;;;;5112738;28;20036;-71
2022/06/26 11:14:10;;;;;;;8.17;3.37;;;;;;;;;;5116374;28;20055;-71
2022/06/26 11:16:38;;;;;;;6.23;3.20;;;;;;;;;;5116647;28;20130;-71
2022/06/26 11:19:20;;;;;;;8.50;3.80;;;;;;;;;;5116602;28;20043;-71
2022/06/26 11:21:46;;;;;;;11.03;3.40;;;;;;;;;;5116401;28;20054;-71
2022/06/26 11:24:12;;;;;;;6.10;3.20;;;;;;;;;;5116532;28;20052;-71
2022/06/26 11:26:38;;;;;;;7.83;3.37;;;;;;;;;;5116231;28;20079;-71
2022/06/26 11:29:08;;;;;;;7.40;3.60;;;;;;;;;;5116450;28;20074;-71
2022/06/26 11:31:34;;;;;;;9.47;4.40;;;;;;;;;;5116202;28;20044;-71
2022/06/26 11:34:11;;;;;;;6.40;2.70;;;25.00;62.60;;;;;;5116596;28;20051;-71
2022/06/26 11:36:50;;;;;;;8.93;3.13;;;25.00;63.70;;;;;;5116216;28;20480;-71
2022/06/26 11:39:16;;;;;;;6.73;3.03;;;24.80;63.30;;;;;;5116351;28;20104;-71
2022/06/26 11:41:42;;;;;;;7.53;2.63;;;24.70;64.30;;;;;;5116005;28;20097;-71
2022/06/26 11:44:08;;;;;;;7.83;2.40;;;24.80;64.40;;;;;;5116066;28;20062;-71
2022/06/26 11:46:34;;;;;;;5.03;2.30;;;24.90;65.60;;;;;;5115727;28;20036;-71
2022/06/26 11:49:00;;;;;;;5.93;2.70;;;25.00;65.30;;;;;;5116249;28;20056;-71
2022/06/26 11:51:30;;;;;;;7.20;3.00;;;25.10;65.00;;;;;;5116013;28;20556;-71
2022/06/26 11:53:56;;;;;;;8.93;2.93;;;25.10;65.60;;;;;;5115804;28;20051;-71
2022/06/26 11:56:27;;;;;;;7.13;2.77;;;25.00;66.00;;;;;;5115927;28;20043;-71
2022/06/26 11:58:54;;;;;;;6.13;2.80;;;25.10;66.10;;;;;;5115556;28;20043;-71
2022/06/26 12:01:20;;;;;;;5.77;2.50;;;25.00;66.30;;;;;;5097686;28;20047;-71
2022/06/26 12:03:46;;;;;;;7.03;3.43;;;25.10;67.60;;;;;;5115458;28;20497;-71
2022/06/26 12:06:24;;;;;;;7.40;3.50;;;25.10;67.50;;;;;;5115662;28;20134;-71
2022/06/26 12:08:50;;;;;;;7.83;3.30;;;25.00;67.40;;;;;;5097598;28;20048;-71
2022/06/26 12:11:16;;;;;;;7.27;4.10;;;25.10;68.40;;;;;;5115829;28;20379;-71
2022/06/26 12:13:43;;;;;;;8.57;3.63;;;25.10;68.30;;;;;;5115357;28;20126;-71
2022/06/26 12:16:11;;;;;;;9.97;4.20;;;24.90;70.40;;;;;;5115534;28;20495;-71
2022/06/26 12:18:37;;;;;;;7.87;4.90;;;24.80;70.70;;;;;;5115349;28;20039;-72
2022/06/26 12:21:23;;;;;;;10.33;5.10;;;24.80;70.60;;;;;;5115380;28;20047;-71
2022/06/26 12:23:52;;;;;;;8.33;4.60;;;24.60;71.70;;;;;;5114579;28;20052;-71
2022/06/26 12:26:21;;;;;;;8.70;3.73;;;24.60;71.20;;;;;;5115340;28;20063;-71
2022/06/26 12:28:52;;;;;;;7.00;3.23;;;24.40;72.10;;;;;;5115083;28;20126;-71
2022/06/26 12:31:20;;;;;;;5.17;2.90;;;24.50;72.30;;;;;;5097134;28;20039;-71
2022/06/26 12:33:47;;;;;;;7.07;2.80;;;24.50;71.20;;;;;;5114988;28;20126;-71
2022/06/26 12:36:13;;;;;;;5.57;2.60;;;24.50;68.70;;;;;;5115165;28;20433;-71
2022/06/26 12:38:41;;;;;;;4.53;2.43;;;24.40;67.50;;;;;;5114975;28;20127;-71
2022/06/26 12:41:16;;;;;;;4.87;2.70;;;24.40;91.90;;;;;;5096876;28;20047;-71
2022/06/26 12:43:51;;;;;;;6.22;2.55;;;24.30;69.10;;;;;;5097775;28;20092;-71
2022/06/26 12:46:17;;;;;;;7.53;2.57;;;;;;;;;;5115097;28;20083;-70
2022/06/26 12:48:43;;;;;;;6.77;2.90;;;24.30;65.80;;;;;;5114673;28;20055;-70
2022/06/26 12:51:09;;;;;;;5.93;2.70;;;24.30;67.60;;;;;;5114756;28;20530;-70
2022/06/26 12:53:35;;;;;;;7.60;3.10;;;24.30;68.20;;;;;;5114789;28;20498;-70
2022/06/26 12:56:01;;;;;;;5.60;2.87;;;24.40;68.70;;;;;;5114458;28;20055;-70
2022/06/26 12:58:27;;;;;;;6.03;2.90;;;24.50;68.50;;;;;;5114480;28;20051;-70
2022/06/26 13:00:53;;;;;;;5.80;2.80;;;24.50;68.00;;;;;;5114482;28;20047;-70
2022/06/26 13:03:20;;;;;;;6.33;3.03;;;24.40;68.50;;;;;;5114534;28;20044;-70
2022/06/26 13:05:46;;;;;;;7.80;3.53;;;24.50;68.80;;;;;;5114399;28;20437;-70
2022/06/26 13:08:14;;;;;;;7.00;3.20;;;24.40;69.60;;;;;;5114651;28;20051;-70
2022/06/26 13:10:41;;;;;;;9.37;3.73;;;24.50;69.40;;;;;;5096372;28;20510;-70
2022/06/26 13:13:07;;;;;;;7.30;3.50;;;24.50;69.80;;;;;;5114785;28;20373;-70
2022/06/26 13:15:32;;;;;;;8.13;3.63;;;24.40;70.20;;;;;;5114277;28;20058;-70
2022/06/26 13:17:58;;;;;;;7.67;4.17;;;24.40;71.00;;;;;;5095569;28;20048;-70
2022/06/26 13:20:24;;;;;;;7.47;4.47;;;24.50;71.60;;;;;;5114256;28;20047;-70
2022/06/26 13:22:49;;;;;;;6.27;3.87;;;24.50;71.80;;;;;;5096026;28;20079;-70